sensor_id;sensor_type;location;lat;lon;timestamp;P1;durP1;ratioP1;P2;durP2;ratioP2
24485;SDS011;13449;49.374;8.584;2024-01-30T00:00:47;25.27;;;9.93;;
24485;SDS011;13449;49.374;8.584;2024-01-30T00:03:14;23.77;;;10.02;;
24485;SDS011;13449;49.374;8.584;2024-01-30T00:05:40;18.55;;;8.70;;
24485;SDS011;13449;49.374;8.584;2024-01-30T00:08:07;15.70;;;7.55;;
24485;SDS011;13449;49.374;8.584;2024-01-30T00:10:35;17.08;;;7.75;;
24485;SDS011;13449;49.374;8.584;2024-01-30T00:13:02;14.50;;;7.13;;
24485;SDS011;13449;49.374;8.584;2024-01-30T00:15:29;14.88;;;6.63;;
24485;SDS011;13449;49.374;8.584;2024-01-30T00:17:55;16.23;;;7.07;;
24485;SDS011;13449;49.374;8.584;2024-01-30T00:20:26;14.68;;;7.18;;
24485;SDS011;13449;49.374;8.584;2024-01-30T00:22:52;8.80;;;5.65;;
24485;SDS011;13449;49.374;8.584;2024-01-30T00:25:21;16.67;;;6.53;;
24485;SDS011;13449;49.374;8.584;2024-01-30T00:27:48;12.48;;;5.38;;
24485;SDS011;13449;49.374;8.584;2024-01-30T00:30:14;11.15;;;5.70;;
24485;SDS011;13449;49.374;8.584;2024-01-30T00:32:41;14.63;;;5.68;;
24485;SDS011;13449;49.374;8.584;2024-01-30T00:35:08;11.93;;;4.90;;
24485;SDS011;13449;49.374;8.584;2024-01-30T00:37:36;6.85;;;4.43;;
24485;SDS011;13449;49.374;8.584;2024-01-30T00:40:03;10.35;;;5.18;;
24485;SDS011;13449;49.374;8.584;2024-01-30T00:42:32;10.35;;;5.30;;
24485;SDS011;13449;49.374;8.584;2024-01-30T00:44:59;13.90;;;4.90;;
24485;SDS011;13449;49.374;8.584;2024-01-30T00:47:26;17.52;;;6.18;;
24485;SDS011;13449;49.374;8.584;2024-01-30T00:49:52;15.73;;;5.57;;
24485;SDS011;13449;49.374;8.584;2024-01-30T00:52:19;10.32;;;5.30;;
24485;SDS011;13449;49.374;8.584;2024-01-30T00:54:46;19.88;;;5.95;;
24485;SDS011;13449;49.374;8.584;2024-01-30T00:57:12;12.88;;;5.43;;
24485;SDS011;13449;49.374;8.584;2024-01-30T00:59:38;11.18;;;5.43;;
24485;SDS011;13449;49.374;8.584;2024-01-30T01:02:05;12.63;;;5.47;;
24485;SDS011;13449;49.374;8.584;2024-01-30T01:04:32;13.65;;;4.78;;
24485;SDS011;13449;49.374;8.584;2024-01-30T01:07:00;9.93;;;4.93;;
24485;SDS011;13449;49.374;8.584;2024-01-30T01:09:27;10.55;;;5.18;;
24485;SDS011;13449;49.374;8.584;2024-01-30T01:11:56;10.73;;;5.45;;
24485;SDS011;13449;49.374;8.584;2024-01-30T01:14:22;8.90;;;4.90;;
24485;SDS011;13449;49.374;8.584;2024-01-30T01:16:48;9.30;;;5.18;;
24485;SDS011;13449;49.374;8.584;2024-01-30T01:19:17;12.90;;;6.05;;
24485;SDS011;13449;49.374;8.584;2024-01-30T01:21:44;10.80;;;5.00;;
24485;SDS011;13449;49.374;8.584;2024-01-30T01:24:10;10.73;;;5.40;;
24485;SDS011;13449;49.374;8.584;2024-01-30T01:26:37;9.75;;;4.68;;
24485;SDS011;13449;49.374;8.584;2024-01-30T01:29:03;10.13;;;5.38;;
24485;SDS011;13449;49.374;8.584;2024-01-30T01:31:36;13.73;;;5.63;;
24485;SDS011;13449;49.374;8.584;2024-01-30T01:34:06;9.70;;;5.20;;
24485;SDS011;13449;49.374;8.584;2024-01-30T01:36:34;11.32;;;5.10;;
24485;SDS011;13449;49.374;8.584;2024-01-30T01:39:01;11.15;;;4.93;;
24485;SDS011;13449;49.374;8.584;2024-01-30T01:41:31;7.80;;;4.22;;
24485;SDS011;13449;49.374;8.584;2024-01-30T01:44:03;13.95;;;5.38;;
24485;SDS011;13449;49.374;8.584;2024-01-30T01:46:30;7.55;;;4.35;;
24485;SDS011;13449;49.374;8.584;2024-01-30T01:49:00;8.02;;;4.68;;
24485;SDS011;13449;49.374;8.584;2024-01-30T01:51:28;12.88;;;4.15;;
24485;SDS011;13449;49.374;8.584;2024-01-30T01:53:57;8.48;;;4.75;;
24485;SDS011;13449;49.374;8.584;2024-01-30T01:56:27;13.85;;;4.85;;
24485;SDS011;13449;49.374;8.584;2024-01-30T01:58:55;12.05;;;4.85;;
24485;SDS011;13449;49.374;8.584;2024-01-30T02:01:24;9.73;;;4.82;;
24485;SDS011;13449;49.374;8.584;2024-01-30T02:03:52;9.85;;;5.05;;
24485;SDS011;13449;49.374;8.584;2024-01-30T02:06:19;7.85;;;4.38;;
24485;SDS011;13449;49.374;8.584;2024-01-30T02:08:46;12.52;;;5.35;;
24485;SDS011;13449;49.374;8.584;2024-01-30T02:11:12;11.27;;;5.30;;
24485;SDS011;13449;49.374;8.584;2024-01-30T02:13:40;13.00;;;5.35;;
24485;SDS011;13449;49.374;8.584;2024-01-30T02:16:07;6.53;;;4.57;;
24485;SDS011;13449;49.374;8.584;2024-01-30T02:18:33;7.95;;;4.65;;
24485;SDS011;13449;49.374;8.584;2024-01-30T02:21:04;12.55;;;5.30;;
24485;SDS011;13449;49.374;8.584;2024-01-30T02:23:33;9.43;;;4.63;;
24485;SDS011;13449;49.374;8.584;2024-01-30T02:26:00;6.82;;;4.45;;
24485;SDS011;13449;49.374;8.584;2024-01-30T02:28:27;10.85;;;4.88;;
24485;SDS011;13449;49.374;8.584;2024-01-30T02:30:53;10.95;;;5.88;;
24485;SDS011;13449;49.374;8.584;2024-01-30T02:33:20;8.40;;;4.78;;
24485;SDS011;13449;49.374;8.584;2024-01-30T02:35:48;11.00;;;5.97;;
24485;SDS011;13449;49.374;8.584;2024-01-30T02:38:17;9.02;;;5.05;;
24485;SDS011;13449;49.374;8.584;2024-01-30T02:40:47;11.07;;;5.25;;
24485;SDS011;13449;49.374;8.584;2024-01-30T02:43:13;11.40;;;5.25;;
24485;SDS011;13449;49.374;8.584;2024-01-30T02:45:40;9.50;;;4.60;;
24485;SDS011;13449;49.374;8.584;2024-01-30T02:48:06;8.57;;;4.70;;
24485;SDS011;13449;49.374;8.584;2024-01-30T02:50:33;7.40;;;4.30;;
24485;SDS011;13449;49.374;8.584;2024-01-30T02:53:00;8.77;;;5.22;;
24485;SDS011;13449;49.374;8.584;2024-01-30T02:55:26;7.28;;;4.00;;
24485;SDS011;13449;49.374;8.584;2024-01-30T02:57:53;8.10;;;4.20;;
24485;SDS011;13449;49.374;8.584;2024-01-30T03:00:19;11.38;;;4.78;;
24485;SDS011;13449;49.374;8.584;2024-01-30T03:02:46;9.35;;;4.97;;
24485;SDS011;13449;49.374;8.584;2024-01-30T03:05:17;8.75;;;4.50;;
24485;SDS011;13449;49.374;8.584;2024-01-30T03:07:46;6.40;;;4.47;;
24485;SDS011;13449;49.374;8.584;2024-01-30T03:10:13;8.27;;;4.97;;
24485;SDS011;13449;49.374;8.584;2024-01-30T03:12:39;11.27;;;4.50;;
24485;SDS011;13449;49.374;8.584;2024-01-30T03:15:06;10.82;;;5.03;;
24485;SDS011;13449;49.374;8.584;2024-01-30T03:17:33;6.68;;;4.25;;
24485;SDS011;13449;49.374;8.584;2024-01-30T03:19:59;9.63;;;4.50;;
24485;SDS011;13449;49.374;8.584;2024-01-30T03:22:26;8.38;;;4.57;;
24485;SDS011;13449;49.374;8.584;2024-01-30T03:24:52;9.65;;;5.15;;
24485;SDS011;13449;49.374;8.584;2024-01-30T03:27:19;9.77;;;4.75;;
24485;SDS011;13449;49.374;8.584;2024-01-30T03:29:45;11.98;;;5.55;;
24485;SDS011;13449;49.374;8.584;2024-01-30T03:32:12;12.23;;;5.65;;
24485;SDS011;13449;49.374;8.584;2024-01-30T03:34:38;12.02;;;5.90;;
24485;SDS011;13449;49.374;8.584;2024-01-30T03:37:06;8.57;;;4.97;;
24485;SDS011;13449;49.374;8.584;2024-01-30T03:39:32;11.48;;;5.43;;
24485;SDS011;13449;49.374;8.584;2024-01-30T03:41:59;8.55;;;5.13;;
24485;SDS011;13449;49.374;8.584;2024-01-30T03:44:25;10.70;;;5.45;;
24485;SDS011;13449;49.374;8.584;2024-01-30T03:46:54;10.40;;;5.68;;
24485;SDS011;13449;49.374;8.584;2024-01-30T03:49:20;9.02;;;5.28;;
24485;SDS011;13449;49.374;8.584;2024-01-30T03:51:49;14.68;;;6.75;;
24485;SDS011;13449;49.374;8.584;2024-01-30T03:54:16;14.63;;;7.53;;
24485;SDS011;13449;49.374;8.584;2024-01-30T03:56:42;12.23;;;5.85;;
24485;SDS011;13449;49.374;8.584;2024-01-30T03:59:09;9.00;;;4.90;;
24485;SDS011;13449;49.374;8.584;2024-01-30T04:01:35;10.02;;;5.68;;
24485;SDS011;13449;49.374;8.584;2024-01-30T04:04:04;9.45;;;4.70;;
24485;SDS011;13449;49.374;8.584;2024-01-30T04:06:31;10.13;;;5.05;;
24485;SDS011;13449;49.374;8.584;2024-01-30T04:08:57;7.32;;;4.57;;
24485;SDS011;13449;49.374;8.584;2024-01-30T04:11:24;7.50;;;4.88;;
24485;SDS011;13449;49.374;8.584;2024-01-30T04:13:53;12.65;;;5.82;;
24485;SDS011;13449;49.374;8.584;2024-01-30T04:16:20;12.32;;;4.88;;
24485;SDS011;13449;49.374;8.584;2024-01-30T04:18:48;19.10;;;6.90;;
24485;SDS011;13449;49.374;8.584;2024-01-30T04:21:15;24.05;;;8.93;;
24485;SDS011;13449;49.374;8.584;2024-01-30T04:23:41;16.67;;;6.63;;
24485;SDS011;13449;49.374;8.584;2024-01-30T04:26:08;23.95;;;8.45;;
24485;SDS011;13449;49.374;8.584;2024-01-30T04:28:34;35.10;;;10.00;;
24485;SDS011;13449;49.374;8.584;2024-01-30T04:31:01;29.63;;;10.10;;
24485;SDS011;13449;49.374;8.584;2024-01-30T04:33:27;29.05;;;9.57;;
24485;SDS011;13449;49.374;8.584;2024-01-30T04:35:56;20.38;;;7.85;;
24485;SDS011;13449;49.374;8.584;2024-01-30T04:38:22;14.32;;;7.00;;
24485;SDS011;13449;49.374;8.584;2024-01-30T04:40:49;18.63;;;7.70;;
24485;SDS011;13449;49.374;8.584;2024-01-30T04:43:16;18.88;;;7.45;;
24485;SDS011;13449;49.374;8.584;2024-01-30T04:45:42;21.10;;;6.38;;
24485;SDS011;13449;49.374;8.584;2024-01-30T04:48:09;17.85;;;6.50;;
24485;SDS011;13449;49.374;8.584;2024-01-30T04:50:35;14.73;;;6.43;;
24485;SDS011;13449;49.374;8.584;2024-01-30T04:53:02;14.38;;;5.97;;
24485;SDS011;13449;49.374;8.584;2024-01-30T04:55:29;26.75;;;6.80;;
24485;SDS011;13449;49.374;8.584;2024-01-30T04:57:55;31.02;;;11.18;;
24485;SDS011;13449;49.374;8.584;2024-01-30T05:00:22;28.80;;;10.85;;
24485;SDS011;13449;49.374;8.584;2024-01-30T05:02:51;28.48;;;11.00;;
24485;SDS011;13449;49.374;8.584;2024-01-30T05:05:20;30.45;;;10.75;;
24485;SDS011;13449;49.374;8.584;2024-01-30T05:07:48;28.50;;;11.20;;
24485;SDS011;13449;49.374;8.584;2024-01-30T05:10:16;28.65;;;10.88;;
24485;SDS011;13449;49.374;8.584;2024-01-30T05:12:43;26.45;;;9.95;;
24485;SDS011;13449;49.374;8.584;2024-01-30T05:15:09;26.55;;;10.25;;
24485;SDS011;13449;49.374;8.584;2024-01-30T05:17:41;25.95;;;10.85;;
24485;SDS011;13449;49.374;8.584;2024-01-30T05:20:07;23.95;;;7.82;;
24485;SDS011;13449;49.374;8.584;2024-01-30T05:22:35;17.08;;;6.78;;
24485;SDS011;13449;49.374;8.584;2024-01-30T05:25:03;19.38;;;8.73;;
24485;SDS011;13449;49.374;8.584;2024-01-30T05:27:30;15.57;;;8.02;;
24485;SDS011;13449;49.374;8.584;2024-01-30T05:29:59;18.08;;;7.95;;
24485;SDS011;13449;49.374;8.584;2024-01-30T05:32:25;19.70;;;7.78;;
24485;SDS011;13449;49.374;8.584;2024-01-30T05:34:52;17.15;;;6.68;;
24485;SDS011;13449;49.374;8.584;2024-01-30T05:37:19;16.13;;;6.55;;
24485;SDS011;13449;49.374;8.584;2024-01-30T05:39:45;14.70;;;7.90;;
24485;SDS011;13449;49.374;8.584;2024-01-30T05:42:12;17.30;;;7.38;;
24485;SDS011;13449;49.374;8.584;2024-01-30T05:44:38;12.02;;;6.63;;
24485;SDS011;13449;49.374;8.584;2024-01-30T05:47:05;15.10;;;7.07;;
24485;SDS011;13449;49.374;8.584;2024-01-30T05:49:34;14.27;;;7.18;;
24485;SDS011;13449;49.374;8.584;2024-01-30T05:52:02;15.20;;;6.53;;
24485;SDS011;13449;49.374;8.584;2024-01-30T05:54:30;13.00;;;6.85;;
24485;SDS011;13449;49.374;8.584;2024-01-30T05:56:56;14.73;;;6.00;;
24485;SDS011;13449;49.374;8.584;2024-01-30T05:59:23;10.77;;;6.70;;
24485;SDS011;13449;49.374;8.584;2024-01-30T06:01:49;11.25;;;6.13;;
24485;SDS011;13449;49.374;8.584;2024-01-30T06:04:18;12.60;;;6.10;;
24485;SDS011;13449;49.374;8.584;2024-01-30T06:06:45;14.50;;;6.20;;
24485;SDS011;13449;49.374;8.584;2024-01-30T06:09:12;13.27;;;6.28;;
24485;SDS011;13449;49.374;8.584;2024-01-30T06:11:39;11.35;;;5.90;;
24485;SDS011;13449;49.374;8.584;2024-01-30T06:14:08;25.95;;;11.13;;
24485;SDS011;13449;49.374;8.584;2024-01-30T06:16:34;25.05;;;9.65;;
24485;SDS011;13449;49.374;8.584;2024-01-30T06:19:01;13.88;;;7.03;;
24485;SDS011;13449;49.374;8.584;2024-01-30T06:21:27;11.23;;;6.10;;
24485;SDS011;13449;49.374;8.584;2024-01-30T06:23:57;14.63;;;6.75;;
24485;SDS011;13449;49.374;8.584;2024-01-30T06:26:24;13.52;;;6.15;;
24485;SDS011;13449;49.374;8.584;2024-01-30T06:28:50;11.23;;;5.97;;
24485;SDS011;13449;49.374;8.584;2024-01-30T06:31:17;11.48;;;6.47;;
24485;SDS011;13449;49.374;8.584;2024-01-30T06:33:46;9.98;;;5.95;;
24485;SDS011;13449;49.374;8.584;2024-01-30T06:36:13;13.52;;;5.90;;
24485;SDS011;13449;49.374;8.584;2024-01-30T06:38:40;12.40;;;5.82;;
24485;SDS011;13449;49.374;8.584;2024-01-30T06:41:07;13.07;;;6.13;;
24485;SDS011;13449;49.374;8.584;2024-01-30T06:43:34;17.08;;;6.35;;
24485;SDS011;13449;49.374;8.584;2024-01-30T06:46:01;14.95;;;7.65;;
24485;SDS011;13449;49.374;8.584;2024-01-30T06:48:27;11.38;;;6.10;;
24485;SDS011;13449;49.374;8.584;2024-01-30T06:50:54;17.35;;;7.13;;
24485;SDS011;13449;49.374;8.584;2024-01-30T06:53:20;14.27;;;6.70;;
24485;SDS011;13449;49.374;8.584;2024-01-30T06:55:47;13.27;;;7.40;;
24485;SDS011;13449;49.374;8.584;2024-01-30T06:58:13;12.63;;;6.65;;
24485;SDS011;13449;49.374;8.584;2024-01-30T07:00:42;13.20;;;6.32;;
24485;SDS011;13449;49.374;8.584;2024-01-30T07:03:09;20.23;;;7.18;;
24485;SDS011;13449;49.374;8.584;2024-01-30T07:05:36;14.27;;;6.97;;
24485;SDS011;13449;49.374;8.584;2024-01-30T07:08:02;23.95;;;8.07;;
24485;SDS011;13449;49.374;8.584;2024-01-30T07:10:31;14.57;;;6.45;;
24485;SDS011;13449;49.374;8.584;2024-01-30T07:12:58;12.18;;;6.80;;
24485;SDS011;13449;49.374;8.584;2024-01-30T07:15:26;13.55;;;6.80;;
24485;SDS011;13449;49.374;8.584;2024-01-30T07:17:53;14.85;;;6.78;;
24485;SDS011;13449;49.374;8.584;2024-01-30T07:20:20;12.60;;;6.35;;
24485;SDS011;13449;49.374;8.584;2024-01-30T07:22:47;15.68;;;7.45;;
24485;SDS011;13449;49.374;8.584;2024-01-30T07:25:13;11.48;;;6.55;;
24485;SDS011;13449;49.374;8.584;2024-01-30T07:27:40;12.57;;;6.43;;
24485;SDS011;13449;49.374;8.584;2024-01-30T07:30:07;13.55;;;7.05;;
24485;SDS011;13449;49.374;8.584;2024-01-30T07:32:36;12.60;;;7.55;;
24485;SDS011;13449;49.374;8.584;2024-01-30T07:35:06;22.60;;;10.32;;
24485;SDS011;13449;49.374;8.584;2024-01-30T07:37:35;42.83;;;13.07;;
24485;SDS011;13449;49.374;8.584;2024-01-30T07:40:02;34.08;;;12.63;;
24485;SDS011;13449;49.374;8.584;2024-01-30T07:42:30;25.90;;;11.00;;
24485;SDS011;13449;49.374;8.584;2024-01-30T07:44:56;39.28;;;13.32;;
24485;SDS011;13449;49.374;8.584;2024-01-30T07:47:23;36.13;;;14.23;;
24485;SDS011;13449;49.374;8.584;2024-01-30T07:49:50;42.00;;;15.85;;
24485;SDS011;13449;49.374;8.584;2024-01-30T07:52:20;28.90;;;11.35;;
24485;SDS011;13449;49.374;8.584;2024-01-30T07:54:47;28.20;;;11.73;;
24485;SDS011;13449;49.374;8.584;2024-01-30T07:57:14;23.95;;;11.98;;
24485;SDS011;13449;49.374;8.584;2024-01-30T07:59:44;31.23;;;16.15;;
24485;SDS011;13449;49.374;8.584;2024-01-30T08:02:14;26.17;;;13.30;;
24485;SDS011;13449;49.374;8.584;2024-01-30T08:04:41;32.95;;;13.48;;
24485;SDS011;13449;49.374;8.584;2024-01-30T08:07:07;20.92;;;10.65;;
24485;SDS011;13449;49.374;8.584;2024-01-30T08:09:36;18.10;;;9.00;;
24485;SDS011;13449;49.374;8.584;2024-01-30T08:12:03;19.67;;;9.02;;
24485;SDS011;13449;49.374;8.584;2024-01-30T08:14:30;18.52;;;9.48;;
24485;SDS011;13449;49.374;8.584;2024-01-30T08:16:59;17.85;;;8.80;;
24485;SDS011;13449;49.374;8.584;2024-01-30T08:19:25;18.75;;;8.32;;
24485;SDS011;13449;49.374;8.584;2024-01-30T08:21:52;21.20;;;8.23;;
24485;SDS011;13449;49.374;8.584;2024-01-30T08:24:18;16.00;;;8.40;;
24485;SDS011;13449;49.374;8.584;2024-01-30T08:26:47;25.60;;;9.13;;
24485;SDS011;13449;49.374;8.584;2024-01-30T08:29:13;16.80;;;7.95;;
24485;SDS011;13449;49.374;8.584;2024-01-30T08:31:40;15.10;;;8.00;;
24485;SDS011;13449;49.374;8.584;2024-01-30T08:34:07;15.57;;;8.55;;
24485;SDS011;13449;49.374;8.584;2024-01-30T08:36:34;15.35;;;8.45;;
24485;SDS011;13449;49.374;8.584;2024-01-30T08:39:03;13.82;;;8.00;;
24485;SDS011;13449;49.374;8.584;2024-01-30T08:41:31;18.23;;;8.32;;
24485;SDS011;13449;49.374;8.584;2024-01-30T08:43:58;14.18;;;8.10;;
24485;SDS011;13449;49.374;8.584;2024-01-30T08:46:24;14.20;;;7.47;;
24485;SDS011;13449;49.374;8.584;2024-01-30T08:48:54;14.10;;;7.85;;
24485;SDS011;13449;49.374;8.584;2024-01-30T08:51:23;21.45;;;7.78;;
24485;SDS011;13449;49.374;8.584;2024-01-30T08:53:52;21.70;;;8.02;;
24485;SDS011;13449;49.374;8.584;2024-01-30T08:56:20;11.57;;;6.78;;
24485;SDS011;13449;49.374;8.584;2024-01-30T08:58:49;15.35;;;8.25;;
24485;SDS011;13449;49.374;8.584;2024-01-30T09:01:16;14.05;;;7.85;;
24485;SDS011;13449;49.374;8.584;2024-01-30T09:03:42;18.83;;;8.63;;
24485;SDS011;13449;49.374;8.584;2024-01-30T09:06:12;14.57;;;7.03;;
24485;SDS011;13449;49.374;8.584;2024-01-30T09:08:39;19.10;;;7.93;;
24485;SDS011;13449;49.374;8.584;2024-01-30T09:11:12;13.43;;;7.85;;
24485;SDS011;13449;49.374;8.584;2024-01-30T09:13:39;15.73;;;7.05;;
24485;SDS011;13449;49.374;8.584;2024-01-30T09:16:06;16.05;;;7.60;;
24485;SDS011;13449;49.374;8.584;2024-01-30T09:18:33;21.75;;;10.40;;
24485;SDS011;13449;49.374;8.584;2024-01-30T09:21:03;22.75;;;8.98;;
24485;SDS011;13449;49.374;8.584;2024-01-30T09:23:31;15.63;;;7.50;;
24485;SDS011;13449;49.374;8.584;2024-01-30T09:25:58;13.98;;;7.00;;
24485;SDS011;13449;49.374;8.584;2024-01-30T09:28:25;11.55;;;6.95;;
24485;SDS011;13449;49.374;8.584;2024-01-30T09:30:53;10.70;;;6.72;;
24485;SDS011;13449;49.374;8.584;2024-01-30T09:33:24;16.00;;;6.97;;
24485;SDS011;13449;49.374;8.584;2024-01-30T09:35:55;12.77;;;6.90;;
24485;SDS011;13449;49.374;8.584;2024-01-30T09:38:22;11.32;;;6.53;;
24485;SDS011;13449;49.374;8.584;2024-01-30T09:40:49;15.63;;;6.78;;
24485;SDS011;13449;49.374;8.584;2024-01-30T09:43:22;15.57;;;6.95;;
24485;SDS011;13449;49.374;8.584;2024-01-30T09:45:52;14.88;;;7.32;;
24485;SDS011;13449;49.374;8.584;2024-01-30T09:48:20;13.82;;;6.72;;
24485;SDS011;13449;49.374;8.584;2024-01-30T09:50:54;12.82;;;6.57;;
24485;SDS011;13449;49.374;8.584;2024-01-30T09:53:23;13.15;;;6.82;;
24485;SDS011;13449;49.374;8.584;2024-01-30T09:55:50;16.92;;;8.52;;
24485;SDS011;13449;49.374;8.584;2024-01-30T09:58:17;20.25;;;7.55;;
24485;SDS011;13449;49.374;8.584;2024-01-30T10:00:43;12.38;;;6.55;;
24485;SDS011;13449;49.374;8.584;2024-01-30T10:03:10;11.90;;;6.97;;
24485;SDS011;13449;49.374;8.584;2024-01-30T10:05:39;9.48;;;6.53;;
24485;SDS011;13449;49.374;8.584;2024-01-30T10:08:06;10.70;;;6.60;;
24485;SDS011;13449;49.374;8.584;2024-01-30T10:10:36;18.50;;;7.38;;
24485;SDS011;13449;49.374;8.584;2024-01-30T10:13:03;10.90;;;6.90;;
24485;SDS011;13449;49.374;8.584;2024-01-30T10:15:33;16.15;;;7.13;;
24485;SDS011;13449;49.374;8.584;2024-01-30T10:18:01;11.77;;;6.75;;
24485;SDS011;13449;49.374;8.584;2024-01-30T10:20:28;13.50;;;7.45;;
24485;SDS011;13449;49.374;8.584;2024-01-30T10:22:55;11.80;;;7.40;;
24485;SDS011;13449;49.374;8.584;2024-01-30T10:25:23;12.80;;;7.45;;
24485;SDS011;13449;49.374;8.584;2024-01-30T10:27:53;10.38;;;6.38;;
24485;SDS011;13449;49.374;8.584;2024-01-30T10:30:22;10.65;;;6.97;;
24485;SDS011;13449;49.374;8.584;2024-01-30T10:32:49;12.75;;;6.40;;
24485;SDS011;13449;49.374;8.584;2024-01-30T10:35:16;13.45;;;5.82;;
24485;SDS011;13449;49.374;8.584;2024-01-30T10:37:47;12.98;;;7.00;;
24485;SDS011;13449;49.374;8.584;2024-01-30T10:40:16;13.15;;;6.97;;
24485;SDS011;13449;49.374;8.584;2024-01-30T10:42:50;16.27;;;7.22;;
24485;SDS011;13449;49.374;8.584;2024-01-30T10:45:24;14.27;;;6.55;;
24485;SDS011;13449;49.374;8.584;2024-01-30T10:47:55;13.85;;;7.05;;
24485;SDS011;13449;49.374;8.584;2024-01-30T10:50:24;14.50;;;6.07;;
24485;SDS011;13449;49.374;8.584;2024-01-30T10:52:52;9.73;;;5.95;;
24485;SDS011;13449;49.374;8.584;2024-01-30T10:55:21;12.82;;;6.22;;
24485;SDS011;13449;49.374;8.584;2024-01-30T10:57:50;11.65;;;6.32;;
24485;SDS011;13449;49.374;8.584;2024-01-30T11:00:20;10.20;;;6.35;;
24485;SDS011;13449;49.374;8.584;2024-01-30T11:02:50;16.45;;;5.95;;
24485;SDS011;13449;49.374;8.584;2024-01-30T11:05:24;10.52;;;6.47;;
24485;SDS011;13449;49.374;8.584;2024-01-30T11:07:58;11.93;;;6.72;;
24485;SDS011;13449;49.374;8.584;2024-01-30T11:10:25;10.30;;;6.30;;
24485;SDS011;13449;49.374;8.584;2024-01-30T11:12:54;11.77;;;6.20;;
24485;SDS011;13449;49.374;8.584;2024-01-30T11:15:21;12.70;;;6.65;;
24485;SDS011;13449;49.374;8.584;2024-01-30T11:22:58;13.77;;;7.45;;
24485;SDS011;13449;49.374;8.584;2024-01-30T11:25:25;14.07;;;6.90;;
24485;SDS011;13449;49.374;8.584;2024-01-30T11:27:53;12.05;;;5.97;;
24485;SDS011;13449;49.374;8.584;2024-01-30T11:35:32;13.30;;;6.40;;
24485;SDS011;13449;49.374;8.584;2024-01-30T11:37:59;10.82;;;6.15;;
24485;SDS011;13449;49.374;8.584;2024-01-30T11:40:29;13.10;;;6.65;;
24485;SDS011;13449;49.374;8.584;2024-01-30T11:42:58;15.85;;;7.47;;
24485;SDS011;13449;49.374;8.584;2024-01-30T11:45:27;11.50;;;6.63;;
24485;SDS011;13449;49.374;8.584;2024-01-30T11:47:55;17.38;;;7.22;;
24485;SDS011;13449;49.374;8.584;2024-01-30T11:50:24;12.50;;;6.63;;
24485;SDS011;13449;49.374;8.584;2024-01-30T11:52:54;12.43;;;6.95;;
24485;SDS011;13449;49.374;8.584;2024-01-30T11:55:21;11.25;;;6.05;;
24485;SDS011;13449;49.374;8.584;2024-01-30T11:57:50;17.60;;;6.68;;
24485;SDS011;13449;49.374;8.584;2024-01-30T12:00:17;12.15;;;6.30;;
24485;SDS011;13449;49.374;8.584;2024-01-30T12:02:51;13.30;;;7.13;;
24485;SDS011;13449;49.374;8.584;2024-01-30T12:07:57;16.27;;;7.07;;
24485;SDS011;13449;49.374;8.584;2024-01-30T12:10:28;13.95;;;7.28;;
24485;SDS011;13449;49.374;8.584;2024-01-30T12:12:55;10.73;;;5.63;;
24485;SDS011;13449;49.374;8.584;2024-01-30T12:15:24;16.75;;;6.97;;
24485;SDS011;13449;49.374;8.584;2024-01-30T12:18:03;11.15;;;6.03;;
24485;SDS011;13449;49.374;8.584;2024-01-30T12:20:30;8.30;;;5.93;;
24485;SDS011;13449;49.374;8.584;2024-01-30T12:22:57;16.30;;;6.80;;
24485;SDS011;13449;49.374;8.584;2024-01-30T12:25:24;16.77;;;6.80;;
24485;SDS011;13449;49.374;8.584;2024-01-30T12:27:51;20.08;;;9.02;;
24485;SDS011;13449;49.374;8.584;2024-01-30T12:30:18;17.25;;;8.05;;
24485;SDS011;13449;49.374;8.584;2024-01-30T12:32:49;20.50;;;6.43;;
24485;SDS011;13449;49.374;8.584;2024-01-30T12:35:17;17.92;;;7.25;;
24485;SDS011;13449;49.374;8.584;2024-01-30T12:37:46;23.02;;;10.48;;
24485;SDS011;13449;49.374;8.584;2024-01-30T12:40:14;14.23;;;7.28;;
24485;SDS011;13449;49.374;8.584;2024-01-30T12:42:42;9.23;;;5.00;;
24485;SDS011;13449;49.374;8.584;2024-01-30T12:45:09;9.32;;;5.72;;
24485;SDS011;13449;49.374;8.584;2024-01-30T12:47:36;19.33;;;6.10;;
24485;SDS011;13449;49.374;8.584;2024-01-30T12:50:03;8.60;;;5.80;;
24485;SDS011;13449;49.374;8.584;2024-01-30T12:52:30;14.77;;;5.90;;
24485;SDS011;13449;49.374;8.584;2024-01-30T12:54:57;8.20;;;5.30;;
24485;SDS011;13449;49.374;8.584;2024-01-30T12:57:24;11.20;;;6.03;;
24485;SDS011;13449;49.374;8.584;2024-01-30T12:59:51;11.55;;;5.88;;
24485;SDS011;13449;49.374;8.584;2024-01-30T13:02:18;12.82;;;6.45;;
24485;SDS011;13449;49.374;8.584;2024-01-30T13:04:47;11.35;;;5.82;;
24485;SDS011;13449;49.374;8.584;2024-01-30T13:07:16;10.75;;;5.43;;
24485;SDS011;13449;49.374;8.584;2024-01-30T13:09:43;15.45;;;5.38;;
24485;SDS011;13449;49.374;8.584;2024-01-30T13:12:12;8.38;;;5.30;;
24485;SDS011;13449;49.374;8.584;2024-01-30T13:14:39;9.40;;;5.00;;
24485;SDS011;13449;49.374;8.584;2024-01-30T13:17:08;10.50;;;4.93;;
24485;SDS011;13449;49.374;8.584;2024-01-30T13:19:38;11.02;;;5.15;;
24485;SDS011;13449;49.374;8.584;2024-01-30T13:22:05;23.08;;;5.03;;
24485;SDS011;13449;49.374;8.584;2024-01-30T13:24:31;16.80;;;5.75;;
24485;SDS011;13449;49.374;8.584;2024-01-30T13:26:58;9.82;;;4.68;;
24485;SDS011;13449;49.374;8.584;2024-01-30T13:29:24;8.32;;;4.85;;
24485;SDS011;13449;49.374;8.584;2024-01-30T13:31:51;9.57;;;5.15;;
24485;SDS011;13449;49.374;8.584;2024-01-30T13:34:18;9.02;;;4.88;;
24485;SDS011;13449;49.374;8.584;2024-01-30T13:36:45;22.17;;;5.45;;
24485;SDS011;13449;49.374;8.584;2024-01-30T13:39:11;9.93;;;4.53;;
24485;SDS011;13449;49.374;8.584;2024-01-30T13:44:07;12.20;;;5.57;;
24485;SDS011;13449;49.374;8.584;2024-01-30T13:46:34;12.63;;;5.55;;
24485;SDS011;13449;49.374;8.584;2024-01-30T13:49:02;8.55;;;4.85;;
24485;SDS011;13449;49.374;8.584;2024-01-30T13:51:29;8.80;;;5.18;;
24485;SDS011;13449;49.374;8.584;2024-01-30T13:53:56;11.68;;;4.68;;
24485;SDS011;13449;49.374;8.584;2024-01-30T13:56:27;12.57;;;4.63;;
24485;SDS011;13449;49.374;8.584;2024-01-30T13:58:57;8.48;;;5.25;;
24485;SDS011;13449;49.374;8.584;2024-01-30T14:01:24;10.60;;;5.38;;
24485;SDS011;13449;49.374;8.584;2024-01-30T14:03:51;8.40;;;4.55;;
24485;SDS011;13449;49.374;8.584;2024-01-30T14:06:18;13.70;;;7.03;;
24485;SDS011;13449;49.374;8.584;2024-01-30T14:08:47;11.65;;;5.93;;
24485;SDS011;13449;49.374;8.584;2024-01-30T14:11:26;8.98;;;5.15;;
24485;SDS011;13449;49.374;8.584;2024-01-30T14:13:54;8.05;;;4.70;;
24485;SDS011;13449;49.374;8.584;2024-01-30T14:16:20;12.85;;;5.30;;
24485;SDS011;13449;49.374;8.584;2024-01-30T14:18:47;10.43;;;5.07;;
24485;SDS011;13449;49.374;8.584;2024-01-30T14:21:14;10.52;;;5.05;;
24485;SDS011;13449;49.374;8.584;2024-01-30T14:23:43;10.75;;;4.55;;
24485;SDS011;13449;49.374;8.584;2024-01-30T14:26:09;9.50;;;4.63;;
24485;SDS011;13449;49.374;8.584;2024-01-30T14:28:36;9.75;;;4.97;;
24485;SDS011;13449;49.374;8.584;2024-01-30T14:31:03;9.45;;;4.38;;
24485;SDS011;13449;49.374;8.584;2024-01-30T14:33:29;9.00;;;4.57;;
24485;SDS011;13449;49.374;8.584;2024-01-30T14:35:56;9.98;;;4.75;;
24485;SDS011;13449;49.374;8.584;2024-01-30T14:38:26;9.15;;;4.50;;
24485;SDS011;13449;49.374;8.584;2024-01-30T14:40:54;15.25;;;6.38;;
24485;SDS011;13449;49.374;8.584;2024-01-30T14:43:21;10.43;;;4.38;;
24485;SDS011;13449;49.374;8.584;2024-01-30T14:45:48;9.38;;;4.50;;
24485;SDS011;13449;49.374;8.584;2024-01-30T14:48:16;7.00;;;4.28;;
24485;SDS011;13449;49.374;8.584;2024-01-30T14:50:42;8.90;;;4.32;;
24485;SDS011;13449;49.374;8.584;2024-01-30T14:53:09;12.85;;;3.85;;